Time;durP1;ratioP1;P1;durP2;ratioP2;P2;SDS_P1;SDS_P2;PMS_P1;PMS_P2;Temp;Humidity;BMP_temperature;BMP_pressure;BME280_temperature;BME280_humidity;BME280_pressure;Samples;Min_cycle;Max_cycle;Signal;HPM_P1;HPM_P2
2021/08/25 00:00:57;;;;;;;10.80;3.60;;;;;;;13.76;68.41;99589.16;234002;1200;139174;-61
2021/08/25 00:06:00;;;;;;;7.10;3.60;;;;;;;13.66;68.12;99584.98;233959;1201;138721;-64
2021/08/25 00:11:04;;;;;;;6.50;3.50;;;;;;;13.55;68.25;99577.91;234016;1201;139158;-62
2021/08/25 00:16:07;;;;;;;10.50;3.70;;;;;;;13.50;68.09;99582.69;234093;1201;138441;-60
2021/08/25 00:21:10;;;;;;;9.10;3.70;;;;;;;13.47;68.13;99576.10;233968;1201;138601;-63
2021/08/25 00:26:13;;;;;;;6.40;3.60;;;;;;;13.47;68.10;99576.98;233970;1201;138567;-62
2021/08/25 00:31:16;;;;;;;8.40;3.50;;;;;;;13.44;68.10;99575.73;234024;1201;139228;-63
2021/08/25 00:36:19;;;;;;;7.50;4.10;;;;;;;13.39;67.97;99576.11;233508;1201;138110;-63
2021/08/25 00:41:23;;;;;;;7.90;4.10;;;;;;;13.30;67.96;99569.56;234012;1201;138915;-62
2021/08/25 00:46:30;;;;;;;9.10;3.90;;;;;;;13.19;67.91;99565.95;234073;1201;138189;-62
2021/08/25 00:51:34;;;;;;;7.60;3.70;;;;;;;13.11;67.86;99561.99;233723;1201;139683;-64
2021/08/25 00:56:37;;;;;;;10.20;3.80;;;;;;;13.07;67.95;99554.59;233985;1200;139079;-64
2021/08/25 01:02:17;;;;;;;9.00;3.80;;;;;;;13.02;68.08;99558.84;234018;1200;140249;-62
2021/08/25 01:07:22;;;;;;;8.60;3.60;;;;;;;12.98;68.04;99562.69;234084;1199;140503;-66
2021/08/25 01:12:26;;;;;;;6.30;3.50;;;;;;;12.92;68.08;99558.39;234144;1199;137977;-62
2021/08/25 01:17:29;;;;;;;8.10;3.80;;;;;;;12.88;67.77;99547.76;233906;1200;138487;-62
2021/08/25 01:22:32;;;;;;;7.20;3.60;;;;;;;12.85;67.96;99545.52;234092;1201;138604;-63
2021/08/25 01:27:40;;;;;;;7.70;3.70;;;;;;;12.80;68.04;99539.56;233317;1201;139506;-60
2021/08/25 01:32:43;;;;;;;9.00;4.00;;;;;;;12.78;67.69;99538.66;233942;1201;139076;-63
2021/08/25 01:37:47;;;;;;;8.60;4.30;;;;;;;12.75;67.80;99534.73;234110;1199;138279;-63
2021/08/25 01:42:53;;;;;;;7.50;3.90;;;;;;;12.71;67.73;99535.50;234062;1199;139357;-61
2021/08/25 01:47:56;;;;;;;7.80;4.00;;;;;;;12.66;68.02;99536.40;234043;1201;140070;-65
2021/08/25 01:52:59;;;;;;;9.00;4.10;;;;;;;12.62;67.91;99537.86;234045;1199;137934;-63
2021/08/25 01:58:02;;;;;;;7.90;4.10;;;;;;;12.56;68.00;99531.27;233448;1199;138532;-61
2021/08/25 02:03:06;;;;;;;10.50;4.70;;;;;;;12.53;67.76;99522.95;234064;1199;140244;-62
2021/08/25 02:08:11;;;;;;;8.50;4.50;;;;;;;12.53;67.74;99521.83;234056;1199;139136;-62
2021/08/25 02:13:14;;;;;;;11.70;4.70;;;;;;;12.55;67.97;99515.29;233806;1201;138133;-62
2021/08/25 02:18:18;;;;;;;8.60;4.60;;;;;;;12.55;67.75;99514.77;233269;1199;138464;-62
2021/08/25 02:23:21;;;;;;;6.60;4.20;;;;;;;12.56;67.86;99516.50;233493;1201;139025;-65
2021/08/25 02:28:25;;;;;;;8.40;4.30;;;;;;;12.54;67.64;99512.33;234108;1201;138462;-63
2021/08/25 02:33:28;;;;;;;8.30;4.30;;;;;;;12.49;67.75;99510.02;233750;1201;138351;-65
2021/08/25 02:38:30;;;;;;;9.30;4.60;;;;;;;12.46;67.67;99503.42;233812;1199;138021;-68
2021/08/25 02:43:34;;;;;;;9.80;4.40;;;;;;;12.44;67.78;99506.24;233977;1199;140122;-64
2021/08/25 02:48:37;;;;;;;8.50;4.30;;;;;;;12.46;67.93;99507.88;234013;1201;139135;-64
2021/08/25 02:53:40;;;;;;;8.90;4.90;;;;;;;12.46;68.18;99498.64;234026;1201;138803;-65
2021/08/25 02:58:43;;;;;;;12.10;4.90;;;;;;;12.49;67.92;99501.09;233958;1201;138152;-66
2021/08/25 03:03:47;;;;;;;7.00;4.30;;;;;;;12.49;68.30;99493.25;234053;1199;139379;-64
2021/08/25 03:08:50;;;;;;;8.60;4.60;;;;;;;12.49;68.59;99491.88;234052;1201;138586;-62
2021/08/25 03:13:53;;;;;;;9.20;4.20;;;;;;;12.46;68.62;99495.05;234093;1199;139275;-65
2021/08/25 03:18:57;;;;;;;11.80;5.50;;;;;;;12.44;68.57;99492.67;233941;1201;139036;-63
2021/08/25 03:24:00;;;;;;;9.20;4.50;;;;;;;12.49;68.89;99492.58;233836;1201;141800;-64
2021/08/25 03:29:03;;;;;;;11.60;4.70;;;;;;;12.54;69.08;99491.90;233340;1201;139014;-65
2021/08/25 03:34:07;;;;;;;11.30;5.40;;;;;;;12.58;69.04;99493.61;234095;1199;137910;-65
2021/08/25 03:39:10;;;;;;;10.20;4.80;;;;;;;12.57;69.13;99492.44;233678;1201;139325;-61
2021/08/25 03:44:13;;;;;;;11.40;5.10;;;;;;;12.58;68.80;99489.52;233443;1201;139175;-61
2021/08/25 03:49:16;;;;;;;11.00;5.30;;;;;;;12.61;69.02;99491.27;233935;1199;139249;-61
2021/08/25 03:54:19;;;;;;;10.60;4.90;;;;;;;12.67;68.85;99497.30;233226;1201;139791;-62
2021/08/25 03:59:22;;;;;;;10.70;5.20;;;;;;;12.70;68.82;99491.23;234004;1199;139376;-64
2021/08/25 04:04:25;;;;;;;11.00;5.10;;;;;;;12.75;68.79;99489.51;233859;1199;139078;-62
2021/08/25 04:09:28;;;;;;;11.80;5.20;;;;;;;12.78;68.63;99490.87;233957;1200;138777;-63
2021/08/25 04:14:32;;;;;;;8.80;5.00;;;;;;;12.80;68.29;99488.66;233980;1200;139216;-63
2021/08/25 04:19:35;;;;;;;8.20;4.80;;;;;;;12.81;68.06;99483.45;234082;1199;139740;-62
2021/08/25 04:24:38;;;;;;;12.20;5.20;;;;;;;12.80;67.98;99484.37;233283;1201;137622;-60
2021/08/25 04:29:41;;;;;;;13.90;5.90;;;;;;;12.78;67.94;99479.55;233611;1201;138769;-62
2021/08/25 04:34:44;;;;;;;11.80;5.40;;;;;;;12.75;67.83;99477.91;233752;1200;139727;-62
2021/08/25 04:39:47;;;;;;;11.00;5.70;;;;;;;12.76;67.96;99471.76;234079;1200;139699;-62
2021/08/25 04:44:49;;;;;;;8.60;5.20;;;;;;;12.79;67.89;99469.27;234036;1201;138611;-58
2021/08/25 04:49:53;;;;;;;15.00;5.90;;;;;;;12.84;67.81;99467.76;233402;1200;138363;-62
2021/08/25 04:54:56;;;;;;;9.30;5.20;;;;;;;12.87;67.69;99463.48;233994;1200;139129;-63
2021/08/25 04:59:59;;;;;;;12.30;5.40;;;;;;;12.88;67.66;99464.25;233970;1199;138761;-61
2021/08/25 05:05:04;;;;;;;13.30;5.50;;;;;;;12.87;67.55;99466.49;233791;1199;138873;-62
2021/08/25 05:10:07;;;;;;;8.20;4.90;;;;;;;12.88;67.57;99457.14;234143;1200;139071;-62
2021/08/25 05:15:11;;;;;;;10.00;6.10;;;;;;;12.94;67.64;99454.23;233913;1200;139952;-64
2021/08/25 05:20:14;;;;;;;10.60;5.50;;;;;;;13.06;67.73;99457.97;233387;1199;139139;-60
2021/08/25 05:25:18;;;;;;;12.10;5.90;;;;;;;13.15;67.90;99455.38;233968;1200;139186;-60
2021/08/25 05:30:21;;;;;;;11.70;6.00;;;;;;;13.22;67.46;99454.89;233955;1200;138380;-61
2021/08/25 05:35:24;;;;;;;11.40;6.00;;;;;;;13.29;67.60;99457.32;233838;1199;140097;-64
2021/08/25 05:40:27;;;;;;;13.50;6.10;;;;;;;13.37;67.63;99455.55;233804;1200;138064;-61
2021/08/25 05:45:30;;;;;;;10.20;5.50;;;;;;;13.40;67.82;99450.17;234013;1200;139277;-60
2021/08/25 05:50:33;;;;;;;13.20;6.10;;;;;;;13.48;67.52;99448.23;233954;1199;140727;-59
2021/08/25 05:55:38;;;;;;;11.60;5.60;;;;;;;13.59;67.90;99445.70;234071;1199;139027;-60
2021/08/25 06:00:50;;;;;;;12.80;5.50;;;;;;;13.71;67.82;99444.20;234080;1199;139119;-60
2021/08/25 06:05:54;;;;;;;11.60;6.00;;;;;;;13.83;67.96;99446.54;233769;1200;138629;-62
2021/08/25 06:10:57;;;;;;;15.80;6.40;;;;;;;13.92;68.02;99454.64;233926;1199;139703;-61
2021/08/25 06:16:00;;;;;;;17.20;6.60;;;;;;;14.00;67.88;99460.36;233785;1200;138012;-63
2021/08/25 06:21:03;;;;;;;12.00;5.90;;;;;;;14.04;67.68;99459.77;234034;1199;138109;-65
2021/08/25 06:26:07;;;;;;;68.80;47.80;;;;;;;14.08;67.98;99459.44;233800;1199;138557;-62
2021/08/25 06:31:10;;;;;;;14.40;6.40;;;;;;;14.90;70.79;99457.41;233920;1200;140321;-63
2021/08/25 06:36:13;;;;;;;12.40;6.70;;;;;;;15.54;69.87;99456.70;233978;1200;138672;-64
2021/08/25 06:41:16;;;;;;;17.70;8.90;;;;;;;16.05;69.67;99453.85;234004;1200;138573;-65
2021/08/25 06:46:19;;;;;;;14.30;9.50;;;;;;;16.57;68.60;99443.89;234151;1197;140714;-64
2021/08/25 06:51:22;;;;;;;39.00;16.00;;;;;;;16.66;67.49;99443.16;233928;1200;139283;-61
2021/08/25 06:56:26;;;;;;;18.10;9.10;;;;;;;16.87;67.44;99438.07;233892;1200;138755;-62
2021/08/25 07:01:29;;;;;;;21.60;11.00;;;;;;;17.00;66.78;99432.48;233998;1200;138571;-61
2021/08/25 07:06:32;;;;;;;16.40;7.20;;;;;;;17.16;66.77;99429.96;233917;1200;139312;-59
2021/08/25 07:11:41;;;;;;;17.80;7.40;;;;;;;17.28;66.06;99421.59;233782;1200;140068;-64
2021/08/25 07:16:44;;;;;;;14.40;7.70;;;;;;;17.45;65.94;99420.55;233815;1200;138774;-64
2021/08/25 07:21:47;;;;;;;11.70;5.70;;;;;;;17.40;64.76;99419.48;234024;1200;138492;-63
2021/08/25 07:26:50;;;;;;;11.50;6.00;;;;;;;17.12;64.07;99417.38;233974;1200;139210;-63
2021/08/25 07:31:53;;;;;;;12.60;5.70;;;;;;;16.91;64.26;99412.25;233894;1200;140176;-66
2021/08/25 07:36:56;;;;;;;100.80;69.70;;;;;;;16.81;63.94;99411.89;233946;1200;138805;-64
2021/08/25 07:41:59;;;;;;;25.70;14.20;;;;;;;17.14;65.66;99415.06;233666;1200;139306;-67
2021/08/25 07:47:02;;;;;;;21.30;10.60;;;;;;;17.74;65.83;99407.85;233957;1200;140085;-64
2021/08/25 07:52:07;;;;;;;23.80;15.90;;;;;;;18.14;65.10;99401.30;233856;1199;138591;-63
2021/08/25 07:57:10;;;;;;;27.90;17.70;;;;;;;18.38;64.16;99403.33;233846;1200;139224;-63
2021/08/25 08:02:15;;;;;;;27.40;18.40;;;;;;;18.46;63.31;99398.29;233857;1199;140065;-62
2021/08/25 08:07:18;;;;;;;;;;;;;;;18.44;63.10;99392.58;233905;1199;139133;-62
2021/08/25 08:12:21;;;;;;;34.40;20.80;;;;;;;18.51;63.36;99382.98;234040;1200;124628;-66
2021/08/25 08:17:24;;;;;;;12.20;7.10;;;;;;;18.63;63.25;99380.09;233983;1199;139913;-62
2021/08/25 08:22:28;;;;;;;18.00;10.40;;;;;;;18.66;62.78;99376.19;234021;1198;140406;-65
2021/08/25 08:27:31;;;;;;;12.70;7.20;;;;;;;18.70;62.79;99372.59;233923;1200;138680;-61
2021/08/25 08:32:34;;;;;;;16.40;9.90;;;;;;;18.65;62.05;99371.21;233788;1200;138270;-63
2021/08/25 08:37:37;;;;;;;83.00;55.80;;;;;;;18.71;61.40;99366.59;233943;1200;139688;-64
2021/08/25 08:42:41;;;;;;;24.00;12.10;;;;;;;18.60;61.08;99353.91;233827;1200;139323;-62
2021/08/25 08:47:44;;;;;;;27.20;13.60;;;;;;;18.77;61.87;99345.77;233947;1200;139430;-60
2021/08/25 08:52:48;;;;;;;28.70;16.40;;;;;;;18.96;61.81;99343.16;233930;1197;139217;-65
2021/08/25 08:57:51;;;;;;;11.50;6.50;;;;;;;19.07;60.92;99334.54;234057;1199;139532;-62
2021/08/25 09:02:54;;;;;;;20.00;10.70;;;;;;;18.92;59.76;99332.91;233882;1200;138479;-62
2021/08/25 09:08:03;;;;;;;16.40;10.80;;;;;;;18.83;60.28;99332.44;233739;1199;139094;-62
2021/08/25 09:13:11;;;;;;;20.40;9.90;;;;;;;18.80;60.30;99328.61;234018;1199;139245;-61
2021/08/25 09:18:15;;;;;;;19.40;10.10;;;;;;;18.82;60.96;99325.41;233976;1200;139399;-62
2021/08/25 09:23:19;;;;;;;41.70;24.20;;;;;;;18.97;60.94;99316.39;233959;1199;138817;-62
2021/08/25 09:28:33;;;;;;;11.40;7.30;;;;;;;19.08;60.87;99311.82;234147;1199;138606;-65
2021/08/25 09:33:42;;;;;;;10.30;6.20;;;;;;;18.92;57.89;99309.38;233974;1200;139638;-63
2021/08/25 09:38:56;;;;;;;11.60;6.50;;;;;;;18.59;57.04;99302.95;233953;1199;139032;-64
2021/08/25 09:44:13;;;;;;;11.50;6.00;;;;;;;18.35;56.52;99298.86;233920;1200;138755;-62
2021/08/25 09:49:33;;;;;;;22.00;12.80;;;;;;;18.17;56.23;99293.27;234050;1198;139174;-61
2021/08/25 09:54:49;;;;;;;26.40;16.40;;;;;;;18.30;58.47;99289.28;233968;1198;139880;-61
2021/08/25 09:59:52;;;;;;;18.40;9.70;;;;;;;18.37;58.68;99286.27;233939;1199;138897;-60
2021/08/25 10:04:55;;;;;;;18.00;10.40;;;;;;;18.34;57.93;99285.18;233943;1200;138592;-62
2021/08/25 10:09:59;;;;;;;12.10;6.90;;;;;;;18.21;57.87;99278.80;233885;1198;140953;-61
2021/08/25 10:15:22;;;;;;;18.70;12.20;;;;;;;18.18;58.50;99278.86;233945;1198;138585;-62
2021/08/25 10:20:25;;;;;;;14.90;7.60;;;;;;;18.37;59.79;99271.16;233832;1199;139055;-63
2021/08/25 10:25:28;;;;;;;30.30;19.70;;;;;;;18.58;59.70;99266.92;233121;1200;140084;-65
2021/08/25 10:30:53;;;;;;;31.70;22.50;;;;;;;18.67;58.88;99261.23;233935;1200;140361;-66
2021/08/25 10:36:22;;;;;;;21.80;14.10;;;;;;;18.70;58.85;99255.08;233903;1199;139231;-63
2021/08/25 10:41:25;;;;;;;77.80;55.70;;;;;;;18.81;59.61;99247.98;233950;1199;139797;-63
2021/08/25 10:46:46;;;;;;;31.70;20.90;;;;;;;19.11;59.47;99237.10;233674;1201;140039;-62
2021/08/25 10:51:50;;;;;;;21.50;13.90;;;;;;;19.37;58.81;99230.99;233993;1200;140055;-66
2021/08/25 10:57:06;;;;;;;25.80;16.80;;;;;;;19.52;58.57;99232.45;233938;1199;138277;-64
2021/08/25 11:02:10;;;;;;;19.10;12.90;;;;;;;19.60;58.13;99226.05;233940;1199;140726;-64
2021/08/25 11:07:14;;;;;;;31.60;12.70;;;;;;;19.64;57.11;99214.41;233879;1200;138915;-64
2021/08/25 11:12:19;;;;;;;32.40;11.80;;;;;;;19.68;57.22;99206.81;233995;1200;139429;-64
2021/08/25 11:17:29;;;;;;;23.50;10.40;;;;;;;19.80;56.96;99203.41;233459;1200;139990;-64
2021/08/25 11:22:38;;;;;;;16.40;8.10;;;;;;;19.88;56.50;99197.70;234058;1200;139767;-65
2021/08/25 11:27:51;;;;;;;151.00;112.50;;;;;;;19.82;55.63;99190.11;234084;1200;139113;-63
2021/08/25 11:32:59;;;;;;;26.10;15.70;;;;;;;19.73;55.37;99187.42;234034;1200;138382;-63
2021/08/25 11:38:09;;;;;;;20.40;12.90;;;;;;;19.80;54.79;99181.19;233845;1200;140365;-67
2021/08/25 11:43:18;;;;;;;19.50;12.30;;;;;;;19.89;54.49;99173.27;232788;1200;139278;-64
2021/08/25 11:48:28;;;;;;;27.90;15.70;;;;;;;20.02;54.28;99170.48;233952;1200;139132;-63
2021/08/25 11:53:35;;;;;;;17.90;12.90;;;;;;;20.09;54.34;99166.74;233963;1200;139141;-64
2021/08/25 11:58:38;;;;;;;19.70;11.50;;;;;;;20.05;54.13;99158.12;234106;1200;140874;-64
2021/08/25 12:03:44;;;;;;;17.90;10.80;;;;;;;20.29;53.62;99153.92;234043;1199;139017;-64
2021/08/25 12:08:50;;;;;;;17.90;11.40;;;;;;;20.44;52.77;99144.16;233771;1201;140182;-65
2021/08/25 12:14:02;;;;;;;;;;;;;;;20.50;52.79;99140.11;233640;1200;139035;-64
2021/08/25 12:19:06;;;;;;;16.70;10.10;;;;;;;20.46;51.54;99132.27;234035;1201;125656;-65
2021/08/25 12:24:11;;;;;;;15.10;10.20;;;;;;;20.43;51.32;99128.96;233983;1201;138566;-63
2021/08/25 12:29:14;;;;;;;25.10;10.80;;;;;;;20.44;51.74;99121.98;233753;1200;139552;-62
2021/08/25 12:34:17;;;;;;;272.80;194.80;;;;;;;20.42;51.49;99115.34;234170;1198;139219;-65
2021/08/25 12:39:22;;;;;;;19.80;13.80;;;;;;;20.56;50.84;99114.48;233542;1201;140403;-64
2021/08/25 12:44:25;;;;;;;25.80;18.60;;;;;;;20.42;49.94;99110.84;233920;1201;139739;-62
2021/08/25 12:49:31;;;;;;;19.60;13.30;;;;;;;20.34;50.23;99100.42;233770;1195;140324;-63
2021/08/25 12:54:34;;;;;;;26.50;17.50;;;;;;;20.57;50.38;99094.76;233860;1199;140166;-63
2021/08/25 12:59:37;;;;;;;42.80;24.20;;;;;;;20.82;50.41;99087.27;232606;1200;141293;-63
2021/08/25 13:04:40;;;;;;;19.30;12.10;;;;;;;20.83;50.27;99090.04;232984;1201;144983;-62
2021/08/25 13:09:43;;;;;;;20.90;11.30;;;;;;;20.76;49.60;99087.02;233986;1200;139661;-64
2021/08/25 13:14:46;;;;;;;31.30;16.90;;;;;;;20.57;49.50;99081.58;233980;1199;139546;-66
2021/08/25 13:19:49;;;;;;;36.80;20.50;;;;;;;20.43;49.90;99070.66;233802;1201;138253;-64
2021/08/25 13:24:52;;;;;;;16.80;11.80;;;;;;;20.34;50.75;99063.67;233510;1198;139393;-64
2021/08/25 13:29:56;;;;;;;25.50;17.80;;;;;;;20.35;50.82;99060.94;232197;1202;139337;-63
2021/08/25 13:35:13;;;;;;;70.50;34.10;;;;;;;20.35;51.01;99050.46;232940;1199;139332;-63
2021/08/25 13:40:21;;;;;;;22.30;14.10;;;;;;;20.72;51.63;99036.71;232575;1201;140441;-64
2021/08/25 13:45:25;;;;;;;16.00;9.90;;;;;;;21.17;51.24;99033.59;232742;1201;139269;-63
2021/08/25 13:50:28;;;;;;;251.80;197.80;;;;;;;21.48;49.77;99023.58;233797;1200;138934;-61
2021/08/25 13:55:31;;;;;;;24.20;15.00;;;;;;;21.69;48.87;99020.14;233723;1201;139633;-63
2021/08/25 14:00:35;;;;;;;15.60;10.30;;;;;;;21.88;48.41;99017.87;233845;1200;139080;-60
2021/08/25 14:05:38;;;;;;;15.40;10.30;;;;;;;21.98;47.78;99012.58;233235;1198;139479;-63
2021/08/25 14:10:44;;;;;;;;;;;;;;;21.92;47.58;99007.14;233966;1200;139587;-62
2021/08/25 14:15:47;;;;;;;19.00;10.50;;;;;;;21.70;47.56;99003.52;234010;1200;125037;-62
2021/08/25 14:20:50;;;;;;;25.10;14.30;;;;;;;21.48;47.57;98998.94;233274;1201;140043;-61
2021/08/25 14:25:54;;;;;;;408.20;269.30;;;;;;;21.34;47.59;98993.58;233774;1201;139170;-62
2021/08/25 14:30:58;;;;;;;31.60;19.70;;;;;;;21.15;47.67;98995.19;233861;1201;139420;-61
2021/08/25 14:36:03;;;;;;;20.40;14.10;;;;;;;20.95;47.16;98993.92;233901;1201;139171;-63
2021/08/25 14:41:07;;;;;;;24.00;12.20;;;;;;;20.69;47.05;98978.21;233844;1199;139937;-61
2021/08/25 14:46:10;;;;;;;25.70;14.20;;;;;;;20.49;47.44;98972.75;234034;1201;139473;-61
2021/08/25 14:51:13;;;;;;;23.00;12.10;;;;;;;20.32;47.42;98970.77;233881;1201;139079;-60
2021/08/25 14:56:16;;;;;;;16.80;10.40;;;;;;;20.19;47.85;98964.70;233947;1200;139526;-61
2021/08/25 15:01:19;;;;;;;18.50;10.60;;;;;;;20.13;48.33;98955.02;234000;1198;140531;-61
2021/08/25 15:06:23;;;;;;;16.50;10.20;;;;;;;20.09;48.33;98946.80;233967;1199;140745;-59
2021/08/25 15:11:26;;;;;;;19.90;10.80;;;;;;;20.03;48.25;98939.70;233921;1200;138616;-60
2021/08/25 15:16:37;;;;;;;20.40;9.70;;;;;;;20.04;48.72;98927.55;232834;1201;140367;-59
2021/08/25 15:21:43;;;;;;;14.40;8.90;;;;;;;20.06;48.60;98926.92;232526;1201;139614;-60
2021/08/25 15:26:49;;;;;;;15.20;8.90;;;;;;;20.01;48.22;98923.54;233928;1199;138741;-59
2021/08/25 15:31:52;;;;;;;17.10;9.40;;;;;;;19.94;48.27;98923.46;233772;1201;139149;-62
2021/08/25 15:37:19;;;;;;;14.10;8.80;;;;;;;19.91;48.15;98916.81;233894;1200;139462;-59
2021/08/25 15:42:26;;;;;;;18.10;8.50;;;;;;;19.81;47.60;98909.86;233940;1199;139735;-60
2021/08/25 15:47:31;;;;;;;16.10;8.70;;;;;;;19.72;47.52;98905.41;233879;1201;138788;-61
2021/08/25 15:52:36;;;;;;;15.60;9.30;;;;;;;19.63;47.35;98904.19;233996;1199;138561;-63
2021/08/25 15:57:51;;;;;;;14.70;9.00;;;;;;;19.55;47.40;98899.05;233850;1199;140401;-61
2021/08/25 16:02:55;;;;;;;68.40;42.50;;;;;;;19.50;47.92;98897.52;233859;1199;138065;-60
2021/08/25 16:08:20;;;;;;;21.60;10.50;;;;;;;19.48;47.74;98894.20;233950;1200;139422;-63
2021/08/25 16:14:26;;;;;;;17.00;10.30;;;;;;;19.39;47.78;98885.20;233726;1199;139900;-66
2021/08/25 16:19:50;;;;;;;15.80;9.90;;;;;;;19.29;47.53;98883.67;233574;1201;138286;-62
2021/08/25 16:25:40;;;;;;;16.60;8.60;;;;;;;19.15;47.45;98872.13;233671;1201;139024;-63
2021/08/25 16:31:36;;;;;;;15.10;9.00;;;;;;;18.95;47.35;98868.73;233722;1200;139145;-62
2021/08/25 16:37:06;;;;;;;16.10;10.40;;;;;;;18.80;47.46;98863.17;233954;1199;139347;-59
2021/08/25 16:42:34;;;;;;;24.10;10.60;;;;;;;18.68;47.67;98847.95;233358;1200;138392;-63
2021/08/25 16:49:04;;;;;;;21.00;8.90;;;;;;;18.63;48.13;98837.81;233320;1202;139261;-63
2021/08/25 17:02:05;;;;;;;15.70;9.20;;;;;;;18.56;48.54;98830.36;230270;1216;138994;-62
2021/08/25 17:08:18;;;;;;;17.90;9.70;;;;;;;18.48;48.78;98832.70;231490;1211;138815;-64
2021/08/25 17:14:36;;;;;;;70.80;51.50;;;;;;;18.42;48.87;98826.98;230384;1217;138769;-60
2021/08/25 17:19:56;;;;;;;51.40;32.50;;;;;;;18.39;49.09;98828.75;231908;1205;139135;-62
2021/08/25 17:26:37;;;;;;;18.60;10.10;;;;;;;18.46;49.50;98821.24;232906;1205;139275;-64
2021/08/25 17:33:15;;;;;;;;;;;;;;;;;;;;;
2021/08/25 17:48:00;;;;;;;171.00;107.20;;;;;;;17.87;50.31;98808.63;230193;1217;652466;-65
2021/08/25 18:15:30;;;;;;;23.50;12.90;;;;;;;19.26;51.36;98805.32;231654;1212;654396;-65
2021/08/25 18:20:41;;;;;;;52.80;25.10;;;;;;;19.02;51.30;98805.05;232307;1206;139100;-63
2021/08/25 18:25:54;;;;;;;244.10;157.00;;;;;;;18.94;52.03;98802.91;232245;1206;139334;-63
2021/08/25 18:31:04;;;;;;;98.30;55.50;;;;;;;18.94;52.19;98801.02;232254;1206;139077;-64
2021/08/25 18:36:19;;;;;;;24.50;12.70;;;;;;;18.80;51.20;98796.11;231957;1202;138409;-62
2021/08/25 18:41:25;;;;;;;22.10;11.60;;;;;;;18.36;50.51;98788.97;232644;1206;137930;-67
2021/08/25 18:46:29;;;;;;;160.70;116.30;;;;;;;17.94;50.62;98790.23;231722;1206;139042;-66
2021/08/25 18:51:33;;;;;;;22.40;14.80;;;;;;;17.62;50.91;98787.16;231951;1207;140146;-63
2021/08/25 18:56:36;;;;;;;20.40;11.90;;;;;;;17.36;51.38;98786.03;233301;1205;139615;-66
2021/08/25 19:01:39;;;;;;;23.50;11.70;;;;;;;17.12;51.76;98780.58;232849;1207;138118;-68
2021/08/25 19:06:57;;;;;;;25.10;12.40;;;;;;;16.87;52.27;98780.05;233231;1205;138512;-65
2021/08/25 19:12:01;;;;;;;28.10;11.70;;;;;;;16.57;52.82;98777.13;233290;1205;139181;-68
2021/08/25 19:17:04;;;;;;;19.70;11.30;;;;;;;16.38;52.96;98773.18;233214;1203;138534;-68
2021/08/25 19:22:08;;;;;;;24.10;12.70;;;;;;;16.28;53.27;98772.45;233254;1204;138384;-69
2021/08/25 19:27:11;;;;;;;20.00;11.30;;;;;;;16.22;53.35;98768.88;232872;1201;139800;-65
2021/08/25 19:32:15;;;;;;;20.50;11.60;;;;;;;16.13;53.62;98769.36;233749;1201;139390;-64
2021/08/25 19:37:18;;;;;;;24.80;12.00;;;;;;;16.05;53.91;98764.44;233914;1201;138887;-68
2021/08/25 19:42:21;;;;;;;19.80;12.10;;;;;;;16.01;54.24;98755.22;233944;1201;139019;-67
2021/08/25 19:47:24;;;;;;;23.40;13.10;;;;;;;15.93;54.36;98750.73;233914;1201;138815;-67
2021/08/25 19:52:27;;;;;;;19.80;11.80;;;;;;;15.87;54.60;98749.80;233948;1201;139268;-64
2021/08/25 19:57:31;;;;;;;23.40;11.90;;;;;;;15.80;54.83;98746.33;233924;1201;137904;-71
2021/08/25 20:02:34;;;;;;;21.80;12.40;;;;;;;15.74;54.86;98746.34;233868;1201;139294;-65
2021/08/25 20:07:38;;;;;;;22.10;12.20;;;;;;;15.65;55.28;98738.52;233938;1201;138705;-64
2021/08/25 20:12:41;;;;;;;21.40;12.40;;;;;;;15.53;55.90;98734.09;233995;1200;137794;-65
2021/08/25 20:17:44;;;;;;;22.90;12.70;;;;;;;15.42;56.23;98726.86;233786;1201;138698;-63
2021/08/25 20:22:48;;;;;;;21.20;12.00;;;;;;;15.30;56.51;98726.50;233951;1201;138281;-64
2021/08/25 20:27:52;;;;;;;22.30;12.40;;;;;;;15.23;56.58;98720.11;233875;1199;138576;-64
2021/08/25 20:32:55;;;;;;;20.90;12.20;;;;;;;15.14;56.84;98719.98;233269;1199;139204;-65
2021/08/25 20:37:58;;;;;;;21.20;11.90;;;;;;;15.02;57.14;98713.69;233825;1201;138750;-64
2021/08/25 20:43:02;;;;;;;21.50;11.60;;;;;;;14.90;57.44;98704.39;233988;1198;142348;-68
2021/08/25 20:48:05;;;;;;;21.90;11.80;;;;;;;14.86;57.56;98701.09;233942;1200;138758;-66
2021/08/25 20:53:09;;;;;;;23.20;13.00;;;;;;;14.90;57.67;98698.33;233519;1200;138243;-63
2021/08/25 20:58:13;;;;;;;22.30;11.90;;;;;;;14.94;57.75;98693.19;233848;1201;139122;-66
2021/08/25 21:03:22;;;;;;;26.70;14.20;;;;;;;14.97;57.74;98690.44;233919;1201;138333;-66
2021/08/25 21:08:27;;;;;;;21.40;12.90;;;;;;;14.98;57.92;98681.03;233972;1200;138444;-66
2021/08/25 21:13:30;;;;;;;25.50;13.40;;;;;;;14.94;57.71;98668.90;233354;1199;138217;-66
2021/08/25 21:18:33;;;;;;;23.20;12.90;;;;;;;14.87;57.71;98668.56;233977;1199;138250;-65
2021/08/25 21:23:37;;;;;;;26.30;13.40;;;;;;;14.78;57.78;98658.39;232247;1201;139347;-67
2021/08/25 21:28:40;;;;;;;27.00;13.50;;;;;;;14.74;58.00;98655.78;233992;1199;138388;-63
2021/08/25 21:33:43;;;;;;;20.80;12.20;;;;;;;14.68;58.21;98654.66;233714;1201;138217;-64
2021/08/25 21:38:46;;;;;;;25.20;12.80;;;;;;;14.61;58.32;98650.64;234096;1201;138439;-64
2021/08/25 21:43:49;;;;;;;22.00;13.00;;;;;;;14.55;58.25;98646.11;233320;1200;138717;-66
2021/08/25 21:48:52;;;;;;;22.80;12.10;;;;;;;14.50;58.42;98639.54;233991;1199;138831;-66
2021/08/25 21:53:55;;;;;;;22.40;13.50;;;;;;;14.44;58.25;98638.23;233773;1199;138300;-68
2021/08/25 21:59:00;;;;;;;25.20;13.50;;;;;;;14.40;58.64;98632.39;234033;1201;138970;-64
2021/08/25 22:04:03;;;;;;;27.00;14.00;;;;;;;14.33;58.48;98628.30;233105;1199;138591;-68
2021/08/25 22:09:08;;;;;;;22.80;12.80;;;;;;;14.30;58.67;98625.88;232422;1201;138895;-63
2021/08/25 22:14:15;;;;;;;25.20;13.40;;;;;;;14.30;58.88;98621.23;232266;1204;138683;-70
2021/08/25 22:19:19;;;;;;;23.50;13.60;;;;;;;14.28;58.93;98611.95;233358;1201;138944;-67
2021/08/25 22:24:22;;;;;;;23.60;13.70;;;;;;;14.26;59.11;98607.80;234045;1201;138049;-66
2021/08/25 22:29:26;;;;;;;25.90;13.70;;;;;;;14.22;59.04;98598.73;233142;1201;138197;-63
2021/08/25 22:34:30;;;;;;;22.60;12.60;;;;;;;14.14;59.11;98590.96;232081;1201;138024;-63
2021/08/25 22:39:34;;;;;;;22.70;12.50;;;;;;;14.09;59.19;98580.06;233265;1200;137983;-62
2021/08/25 22:44:38;;;;;;;23.90;13.30;;;;;;;14.02;59.32;98577.58;234011;1201;138206;-65
2021/08/25 22:49:41;;;;;;;23.60;13.10;;;;;;;13.93;59.42;98572.04;234016;1200;138132;-61
2021/08/25 22:54:44;;;;;;;23.10;13.90;;;;;;;13.88;59.48;98565.37;233652;1201;138449;-61
2021/08/25 22:59:48;;;;;;;24.10;12.90;;;;;;;13.84;59.62;98556.58;233499;1198;139488;-62
2021/08/25 23:04:51;;;;;;;22.30;13.20;;;;;;;13.81;60.07;98549.57;233531;1201;138245;-62
2021/08/25 23:09:55;;;;;;;22.90;12.80;;;;;;;13.75;60.03;98539.87;233868;1201;139198;-63
2021/08/25 23:14:59;;;;;;;22.50;13.60;;;;;;;13.73;60.36;98532.92;233773;1200;139352;-64
2021/08/25 23:20:02;;;;;;;24.70;13.70;;;;;;;13.72;60.51;98534.55;234045;1200;138274;-61
2021/08/25 23:25:06;;;;;;;22.00;12.80;;;;;;;13.68;60.79;98530.63;233999;1200;138512;-64
2021/08/25 23:30:10;;;;;;;22.10;13.20;;;;;;;13.66;60.67;98528.81;234017;1201;138394;-65
2021/08/25 23:35:13;;;;;;;22.10;12.90;;;;;;;13.63;60.82;98522.98;234046;1199;137956;-68
2021/08/25 23:40:17;;;;;;;23.00;13.40;;;;;;;13.56;60.93;98517.39;233911;1201;138659;-65
2021/08/25 23:45:20;;;;;;;25.10;13.70;;;;;;;13.48;60.86;98509.29;234207;1200;138493;-63
2021/08/25 23:50:23;;;;;;;21.70;12.80;;;;;;;13.43;61.11;98501.33;234082;1201;138744;-64